createdAt,value
2022-08-03T00:00:07.895Z,87.58
2022-08-03T00:00:27.971Z,87.54
2022-08-03T00:00:48.112Z,87.52
2022-08-03T00:01:08.114Z,87.55
2022-08-03T00:01:28.183Z,87.76
2022-08-03T00:01:48.262Z,87.8
2022-08-03T00:02:08.322Z,87.89
2022-08-03T00:02:28.407Z,88
2022-08-03T00:02:48.540Z,88.08
2022-08-03T00:03:08.647Z,88.19
2022-08-03T00:03:28.704Z,88.31
2022-08-03T00:03:48.749Z,88.38
2022-08-03T00:04:08.822Z,88.46
2022-08-03T00:04:34.044Z,88.24
2022-08-03T00:04:48.951Z,87.93
2022-08-03T00:05:08.992Z,87.95
2022-08-03T00:05:29.069Z,87.91
2022-08-03T00:06:03.985Z,87.8
2022-08-03T00:06:09.213Z,87.84
2022-08-03T00:06:31.673Z,87.9
2022-08-03T00:06:49.352Z,87.83
2022-08-03T00:07:09.440Z,87.73
2022-08-03T00:07:29.504Z,87.64
2022-08-03T00:07:49.713Z,87.67
2022-08-03T00:08:09.678Z,88.02
2022-08-03T00:08:29.709Z,88.1
2022-08-03T00:08:49.769Z,87.99
2022-08-03T00:09:09.855Z,88.05
2022-08-03T00:09:35.522Z,88.14
2022-08-03T00:09:49.936Z,87.97
2022-08-03T00:10:10.017Z,87.96
2022-08-03T00:10:30.091Z,88.2
2022-08-03T00:10:50.262Z,88.32
2022-08-03T00:11:10.217Z,88.4
2022-08-03T00:11:30.282Z,88.6
2022-08-03T00:11:50.369Z,89.14
2022-08-03T00:12:10.404Z,89.45
2022-08-03T00:12:30.481Z,89.64
2022-08-03T00:12:50.546Z,89.42
2022-08-03T00:13:10.627Z,89.36
2022-08-03T00:13:30.731Z,89.47
2022-08-03T00:13:50.812Z,89.59
2022-08-03T00:14:10.855Z,89.61
2022-08-03T00:14:30.918Z,89.54
2022-08-03T00:14:51.008Z,89.43
2022-08-03T00:15:14.999Z,89.28
2022-08-03T00:15:31.170Z,89.14
2022-08-03T00:15:51.312Z,89.15
2022-08-03T00:16:11.303Z,89.18
2022-08-03T00:16:31.398Z,89.31
2022-08-03T00:16:51.456Z,89.34
2022-08-03T00:17:11.539Z,89.4
2022-08-03T00:17:31.613Z,89.52
2022-08-03T00:17:53.214Z,89.62
2022-08-03T00:18:11.785Z,89.74
2022-08-03T00:18:31.834Z,89.81
2022-08-03T00:18:51.912Z,89.86
2022-08-03T00:19:11.999Z,89.85
2022-08-03T00:19:32.089Z,89.89
2022-08-03T00:19:52.151Z,90.1
2022-08-03T00:20:12.222Z,90.06
2022-08-03T00:20:32.286Z,89.96
2022-08-03T00:20:52.427Z,89.72
2022-08-03T00:21:12.396Z,89.78
2022-08-03T00:21:32.470Z,89.67
2022-08-03T00:21:52.558Z,89.7
2022-08-03T00:22:12.607Z,89.76
2022-08-03T00:22:32.701Z,89.76
2022-08-03T00:22:52.772Z,89.68
2022-08-03T00:23:12.826Z,89.51
2022-08-03T00:23:33.473Z,89.42
2022-08-03T00:23:53.053Z,89.34
2022-08-03T00:24:13.071Z,89.34
2022-08-03T00:24:33.139Z,89.29
2022-08-03T00:24:53.237Z,89.62
2022-08-03T00:25:13.289Z,89.55
2022-08-03T00:25:33.359Z,89.38
2022-08-03T00:25:53.523Z,89.18
2022-08-03T00:26:13.493Z,89.31
2022-08-03T00:26:33.586Z,89.41
2022-08-03T00:26:53.663Z,89.48
2022-08-03T00:27:15.793Z,89.36
2022-08-03T00:27:33.810Z,89.39
2022-08-03T00:27:53.907Z,89.53
2022-08-03T00:28:14.019Z,89.77
2022-08-03T00:28:34.057Z,89.83
2022-08-03T00:28:54.143Z,90.38
2022-08-03T00:29:14.186Z,90.51
2022-08-03T00:29:34.257Z,90.75
2022-08-03T00:29:59.319Z,90.9
2022-08-03T00:30:14.395Z,91.08
2022-08-03T00:30:34.470Z,91.18
2022-08-03T00:30:54.617Z,91.3
2022-08-03T00:31:14.615Z,91.32
2022-08-03T00:31:51.688Z,91
2022-08-03T00:31:59.338Z,91.16
2022-08-03T00:32:15.084Z,91.2
2022-08-03T00:32:34.918Z,91.11
2022-08-03T00:32:54.978Z,90.97
2022-08-03T00:33:15.062Z,90.51
2022-08-03T00:33:58.801Z,90.52
2022-08-03T00:33:58.921Z,90.55
2022-08-03T00:34:15.296Z,90.7
2022-08-03T00:34:57.841Z,90.61
2022-08-03T00:34:58.511Z,90.48
2022-08-03T00:35:36.481Z,90.35
2022-08-03T00:35:36.777Z,90.04
2022-08-03T00:35:55.709Z,89.91
2022-08-03T00:36:15.691Z,89.99
2022-08-03T00:36:35.778Z,90.35
2022-08-03T00:36:55.836Z,90.74
2022-08-03T00:37:16.336Z,91.18
2022-08-03T00:37:41.549Z,91.06
2022-08-03T00:37:55.996Z,90.7
2022-08-03T00:38:16.070Z,90.65
2022-08-03T00:38:36.152Z,90.69
2022-08-03T00:38:56.233Z,90.65
2022-08-03T00:39:16.308Z,90.5
2022-08-03T00:39:36.369Z,90.51
2022-08-03T00:39:56.490Z,90.4
2022-08-03T00:40:16.543Z,90.28
2022-08-03T00:40:36.599Z,90.3
2022-08-03T00:40:56.750Z,90.31
2022-08-03T00:41:16.764Z,90.3
2022-08-03T00:41:36.841Z,90.21
2022-08-03T00:41:56.914Z,90.23
2022-08-03T00:42:17.293Z,90.17
2022-08-03T00:42:37.035Z,90.1
2022-08-03T00:42:57.134Z,90
2022-08-03T00:43:17.179Z,90.25
2022-08-03T00:43:37.291Z,90.51
2022-08-03T00:43:57.330Z,90.37
2022-08-03T00:44:17.420Z,90.34
2022-08-03T00:44:37.461Z,90.26
2022-08-03T00:44:57.508Z,90.53
2022-08-03T00:45:17.574Z,90.66
2022-08-03T00:45:37.671Z,90.67
2022-08-03T00:45:57.812Z,90.63
2022-08-03T00:46:21.592Z,90.73
2022-08-03T00:46:37.868Z,90.79
2022-08-03T00:46:58.007Z,90.96
2022-08-03T00:47:18.031Z,91.12
2022-08-03T00:47:38.099Z,91.28
2022-08-03T00:47:58.169Z,91.47
2022-08-03T00:48:32.202Z,91.55
2022-08-03T00:48:38.287Z,91.49
2022-08-03T00:48:58.458Z,91.47
2022-08-03T00:49:18.512Z,91.51
2022-08-03T00:49:38.593Z,91.49
2022-08-03T00:49:58.614Z,91.47
2022-08-03T00:50:18.680Z,91.43
2022-08-03T00:50:38.818Z,91.38
2022-08-03T00:50:58.874Z,91.41
2022-08-03T00:51:18.866Z,91.45
2022-08-03T00:51:38.937Z,91.41
2022-08-03T00:51:58.998Z,91.47
2022-08-03T00:52:19.371Z,91.25
2022-08-03T00:52:39.110Z,90.98
2022-08-03T00:52:59.181Z,90.83
2022-08-03T00:53:19.243Z,91.04
2022-08-03T00:53:39.325Z,91.24
2022-08-03T00:53:59.407Z,91.53
2022-08-03T00:54:19.476Z,91.76
2022-08-03T00:54:39.548Z,91.86
2022-08-03T00:54:59.641Z,91.83
2022-08-03T00:55:19.727Z,91.73
2022-08-03T00:55:39.785Z,91.71
2022-08-03T00:55:59.926Z,91.58
2022-08-03T00:56:19.927Z,91.6
2022-08-03T00:56:40.002Z,91.83
2022-08-03T00:57:00.617Z,91.81
2022-08-03T00:57:20.161Z,91.63
2022-08-03T00:57:40.218Z,91.41
2022-08-03T00:58:00.305Z,91.33
2022-08-03T00:58:20.343Z,91.43
2022-08-03T00:58:40.434Z,91.58
2022-08-03T00:59:00.495Z,91.57
2022-08-03T00:59:20.594Z,91.45
2022-08-03T00:59:40.667Z,91.47
2022-08-03T01:00:00.715Z,91.59
2022-08-03T01:00:20.780Z,91.65
2022-08-03T01:00:40.849Z,91.61
2022-08-03T01:01:01.091Z,91.38
2022-08-03T01:01:21.041Z,91.37
2022-08-03T01:01:41.201Z,91.16
2022-08-03T01:02:01.176Z,91.08
2022-08-03T01:02:21.273Z,91.18
2022-08-03T01:02:41.342Z,91.51
2022-08-03T01:03:01.436Z,91.73
2022-08-03T01:03:21.489Z,91.74
2022-08-03T01:03:41.550Z,91.85
2022-08-03T01:04:01.631Z,92.05
2022-08-03T01:04:21.687Z,92.15
2022-08-03T01:04:41.760Z,92.22
2022-08-03T01:05:01.850Z,92.18
2022-08-03T01:05:21.925Z,92.23
2022-08-03T01:05:42.007Z,92.25
2022-08-03T01:06:02.172Z,92.22
2022-08-03T01:06:22.180Z,92.26
2022-08-03T01:06:42.251Z,92.23
2022-08-03T01:07:02.319Z,92.33
2022-08-03T01:07:22.407Z,92.28
2022-08-03T01:07:42.460Z,92.25
2022-08-03T01:08:02.545Z,92.22
2022-08-03T01:08:22.621Z,92.09
2022-08-03T01:08:42.698Z,91.97
2022-08-03T01:09:02.815Z,91.99
2022-08-03T01:09:22.855Z,91.98
2022-08-03T01:09:42.915Z,92.01
2022-08-03T01:10:02.980Z,92.03
2022-08-03T01:10:23.064Z,92.02
2022-08-03T01:10:43.140Z,92.12
2022-08-03T01:11:03.270Z,92.09
2022-08-03T01:11:23.250Z,92.02
2022-08-03T01:12:00.643Z,91.8
2022-08-03T01:12:03.394Z,91.78
2022-08-03T01:12:23.462Z,91.64
2022-08-03T01:12:43.556Z,91.59
2022-08-03T01:13:03.637Z,91.54
2022-08-03T01:14:02.047Z,91.62
2022-08-03T01:14:04.139Z,91.59
2022-08-03T01:14:19.253Z,91.65
2022-08-03T01:14:23.927Z,91.71
2022-08-03T01:14:44.004Z,91.77
2022-08-03T01:15:04.086Z,91.91
2022-08-03T01:15:24.152Z,92.11
2022-08-03T01:15:44.213Z,92.2
2022-08-03T01:16:04.359Z,92.15
2022-08-03T01:16:27.939Z,92.12
2022-08-03T01:16:44.437Z,92.15
2022-08-03T01:17:04.516Z,92.25
2022-08-03T01:17:24.606Z,92.3
2022-08-03T01:17:44.673Z,92.29
2022-08-03T01:18:04.765Z,92.24
2022-08-03T01:18:24.828Z,92.31
2022-08-03T01:18:44.913Z,92.37
2022-08-03T01:19:04.982Z,92.45
2022-08-03T01:19:25.059Z,92.61
2022-08-03T01:19:45.155Z,92.73
2022-08-03T01:20:05.240Z,92.83
2022-08-03T01:20:25.312Z,92.86
2022-08-03T01:20:45.398Z,92.94
2022-08-03T01:21:05.532Z,93.01
2022-08-03T01:21:25.540Z,92.96
2022-08-03T01:21:45.600Z,92.82
2022-08-03T01:22:05.661Z,92.72
2022-08-03T01:22:25.746Z,92.7
2022-08-03T01:22:45.786Z,92.64
2022-08-03T01:23:05.865Z,92.65
2022-08-03T01:23:29.047Z,92.68
2022-08-03T01:23:46.031Z,92.69
2022-08-03T01:24:06.083Z,92.66
2022-08-03T01:24:26.142Z,92.67
2022-08-03T01:24:46.219Z,92.62
2022-08-03T01:25:06.334Z,92.59
2022-08-03T01:25:26.423Z,92.53
2022-08-03T01:25:46.543Z,92.45
2022-08-03T01:26:06.668Z,92.31
2022-08-03T01:26:26.666Z,92.18
2022-08-03T01:26:46.746Z,92.2
2022-08-03T01:27:06.784Z,92.24
2022-08-03T01:27:26.862Z,92.17
2022-08-03T01:27:46.932Z,92.11
2022-08-03T01:28:06.997Z,92.11
2022-08-03T01:28:27.066Z,92.14
2022-08-03T01:28:47.152Z,92
2022-08-03T01:29:07.209Z,91.92
2022-08-03T01:29:27.287Z,91.92
2022-08-03T01:29:47.348Z,91.9
2022-08-03T01:30:07.408Z,91.82
2022-08-03T01:30:27.476Z,91.84
2022-08-03T01:30:47.528Z,91.95
2022-08-03T01:31:07.662Z,92.03
2022-08-03T01:31:27.674Z,92.24
2022-08-03T01:32:53.305Z,92.14
2022-08-03T01:32:58.963Z,92.17
2022-08-03T01:33:02.687Z,92.07
2022-08-03T01:33:03.023Z,92.31
2022-08-03T01:33:08.335Z,92.34
2022-08-03T01:33:28.118Z,92.32
2022-08-03T01:33:48.178Z,92.43
2022-08-03T01:34:08.411Z,92.56
2022-08-03T01:34:28.375Z,92.81
2022-08-03T01:34:48.449Z,92.9
2022-08-03T01:35:08.537Z,92.94
2022-08-03T01:35:28.632Z,92.98
2022-08-03T01:35:48.684Z,92.96
2022-08-03T01:36:08.828Z,93.03
2022-08-03T01:36:28.838Z,93.08
2022-08-03T01:36:48.870Z,93.01
2022-08-03T01:37:08.937Z,93.12
2022-08-03T01:37:29.015Z,93.21
2022-08-03T01:37:49.101Z,93.28
2022-08-03T01:38:09.195Z,93.25
2022-08-03T01:38:29.239Z,93.27
2022-08-03T01:38:49.313Z,93.3
2022-08-03T01:39:09.430Z,93.34
2022-08-03T01:39:29.484Z,93.4
2022-08-03T01:39:49.548Z,93.43
2022-08-03T01:40:09.636Z,93.34
2022-08-03T01:40:29.718Z,93.23
2022-08-03T01:40:49.780Z,93.27
2022-08-03T01:41:09.927Z,93.25
2022-08-03T01:41:29.946Z,93.26
2022-08-03T01:41:49.997Z,93.35
2022-08-03T01:42:10.163Z,93.32
2022-08-03T01:42:30.126Z,93.43
2022-08-03T01:42:50.212Z,93.5
2022-08-03T01:43:10.246Z,93.48
2022-08-03T01:43:55.217Z,93.41
2022-08-03T01:44:27.760Z,93.5
2022-08-03T01:44:29.016Z,93.49
2022-08-03T01:44:31.019Z,93.63
2022-08-03T01:44:50.635Z,93.69
2022-08-03T01:45:10.693Z,93.75
2022-08-03T01:45:34.042Z,93.8
2022-08-03T01:45:50.848Z,93.88
2022-08-03T01:46:10.986Z,93.88
2022-08-03T01:46:30.998Z,93.96
2022-08-03T01:46:51.056Z,93.98
2022-08-03T01:47:11.134Z,94.01
2022-08-03T01:47:31.185Z,94.01
2022-08-03T01:47:51.277Z,94.04
2022-08-03T01:48:11.347Z,94.02
2022-08-03T01:48:31.415Z,94.03
2022-08-03T01:48:51.600Z,93.92
2022-08-03T01:49:11.636Z,93.9
2022-08-03T01:49:31.705Z,93.85
2022-08-03T01:49:51.731Z,93.77
2022-08-03T01:50:11.825Z,93.79
2022-08-03T01:50:31.924Z,93.84
2022-08-03T01:50:52.002Z,93.78
2022-08-03T01:51:12.153Z,93.71
2022-08-03T01:51:56.646Z,93.41
2022-08-03T01:51:57.733Z,93.59
2022-08-03T01:52:12.307Z,93.27
2022-08-03T01:52:32.403Z,93.18
2022-08-03T01:52:52.449Z,93.23
2022-08-03T01:53:12.522Z,93.26
2022-08-03T01:53:32.599Z,93.27
2022-08-03T01:53:52.675Z,93.25
2022-08-03T01:54:12.743Z,93.34
2022-08-03T01:54:32.799Z,93.42
2022-08-03T01:54:52.861Z,93.43
2022-08-03T01:55:12.914Z,93.4
2022-08-03T01:55:33.020Z,93.51
2022-08-03T01:55:53.104Z,93.51
2022-08-03T01:56:13.250Z,93.53
2022-08-03T01:56:33.217Z,93.61
2022-08-03T01:56:53.295Z,93.68
2022-08-03T01:57:13.378Z,93.71
2022-08-03T01:57:33.471Z,93.75
2022-08-03T01:58:05.163Z,93.8
2022-08-03T01:58:13.595Z,93.82
2022-08-03T01:58:33.683Z,93.84
2022-08-03T01:58:53.744Z,93.88
2022-08-03T01:59:13.814Z,93.85
2022-08-03T01:59:33.889Z,93.77
2022-08-03T01:59:53.998Z,93.8
2022-08-03T02:00:14.070Z,93.75
2022-08-03T02:00:34.139Z,93.72
2022-08-03T02:00:54.328Z,93.68
2022-08-03T02:01:14.447Z,93.7
2022-08-03T02:02:15.524Z,93.71
2022-08-03T02:02:28.605Z,93.65
2022-08-03T02:02:33.671Z,93.62
2022-08-03T02:02:34.929Z,93.56
2022-08-03T02:02:54.730Z,93.44
2022-08-03T02:03:14.807Z,93.3
2022-08-03T02:03:34.881Z,93.28
2022-08-03T02:03:59.684Z,93.38
2022-08-03T02:04:15.021Z,93.42
2022-08-03T02:04:35.101Z,93.45
2022-08-03T02:04:55.201Z,93.34
2022-08-03T02:05:15.265Z,93.29
2022-08-03T02:05:35.371Z,93.42
2022-08-03T02:06:11.726Z,93.47
2022-08-03T02:06:55.720Z,93.57
2022-08-03T02:07:01.077Z,93.56
2022-08-03T02:07:01.394Z,93.53
2022-08-03T02:07:15.683Z,93.58
2022-08-03T02:07:35.776Z,93.68
2022-08-03T02:07:55.850Z,93.7
2022-08-03T02:08:15.941Z,93.74
2022-08-03T02:08:35.982Z,93.8
2022-08-03T02:08:56.073Z,93.74
2022-08-03T02:09:16.130Z,93.78
2022-08-03T02:09:36.210Z,93.85
2022-08-03T02:09:56.272Z,93.82
2022-08-03T02:10:16.358Z,93.77
2022-08-03T02:10:36.465Z,93.76
2022-08-03T02:10:56.512Z,93.72
2022-08-03T02:11:16.652Z,93.61
2022-08-03T02:11:36.652Z,93.5
2022-08-03T02:11:56.739Z,93.81
2022-08-03T02:12:17.025Z,93.89
2022-08-03T02:12:36.880Z,93.96
2022-08-03T02:12:56.963Z,93.91
2022-08-03T02:13:17.064Z,93.91
2022-08-03T02:13:37.155Z,94.02
2022-08-03T02:13:57.240Z,94.07
2022-08-03T02:14:17.317Z,94.13
2022-08-03T02:14:37.402Z,94.11
2022-08-03T02:14:57.443Z,94.14
2022-08-03T02:15:17.543Z,94.1
2022-08-03T02:15:37.599Z,94.16
2022-08-03T02:15:57.673Z,94.13
2022-08-03T02:16:17.836Z,94.16
2022-08-03T02:16:37.834Z,94.21
2022-08-03T02:16:57.889Z,94.18
2022-08-03T02:17:18.017Z,94.3
2022-08-03T02:17:38.464Z,94.31
2022-08-03T02:17:58.184Z,94.39
2022-08-03T02:18:18.250Z,94.51
2022-08-03T02:18:38.325Z,94.53
2022-08-03T02:18:58.403Z,94.54
2022-08-03T02:19:18.482Z,94.66
2022-08-03T02:19:38.555Z,94.72
2022-08-03T02:19:58.629Z,94.62
2022-08-03T02:20:18.705Z,94.47
2022-08-03T02:20:38.781Z,94.39
2022-08-03T02:20:58.837Z,94.34
2022-08-03T02:21:55.449Z,94.41
2022-08-03T02:21:56.766Z,94.5
2022-08-03T02:22:01.392Z,94.57
2022-08-03T02:22:19.130Z,94.55
2022-08-03T02:22:39.211Z,94.58
2022-08-03T02:22:59.244Z,94.6
2022-08-03T02:23:19.339Z,94.51
2022-08-03T02:23:39.389Z,94.51
2022-08-03T02:23:59.468Z,94.52
2022-08-03T02:24:19.538Z,94.52
2022-08-03T02:24:39.578Z,94.54
2022-08-03T02:24:59.652Z,94.53
2022-08-03T02:25:19.735Z,94.68
2022-08-03T02:25:39.831Z,94.65
2022-08-03T02:26:00.156Z,94.71
2022-08-03T02:26:20.079Z,94.74
2022-08-03T02:26:40.102Z,94.81
2022-08-03T02:27:00.202Z,94.91
2022-08-03T02:27:20.258Z,94.95
2022-08-03T02:27:43.450Z,95.04
2022-08-03T02:28:00.359Z,95.09
2022-08-03T02:28:20.451Z,95.07
2022-08-03T02:28:40.524Z,95
2022-08-03T02:29:00.607Z,94.98
2022-08-03T02:29:20.693Z,94.95
2022-08-03T02:29:41.102Z,94.96
2022-08-03T02:30:00.795Z,95.04
2022-08-03T02:30:20.905Z,95.24
2022-08-03T02:30:40.956Z,95.37
2022-08-03T02:31:01.044Z,95.42
2022-08-03T02:31:21.183Z,95.5
2022-08-03T02:31:41.165Z,95.46
2022-08-03T02:32:01.222Z,95.33
2022-08-03T02:32:21.281Z,95.28
2022-08-03T02:32:41.352Z,95.28
2022-08-03T02:33:01.457Z,95.39
2022-08-03T02:33:21.501Z,95.42
2022-08-03T02:33:41.550Z,95.31
2022-08-03T02:34:01.636Z,95.27
2022-08-03T02:34:21.682Z,95.2
2022-08-03T02:34:41.766Z,95.09
2022-08-03T02:35:01.860Z,94.89
2022-08-03T02:35:21.914Z,94.76
2022-08-03T02:35:42.010Z,94.64
2022-08-03T02:36:02.096Z,94.77
2022-08-03T02:36:22.259Z,94.83
2022-08-03T02:36:42.233Z,94.73
2022-08-03T02:37:02.299Z,94.6
2022-08-03T02:37:22.370Z,94.58
2022-08-03T02:37:42.915Z,94.62
2022-08-03T02:38:02.529Z,94.65
2022-08-03T02:38:22.579Z,94.75
2022-08-03T02:38:42.698Z,94.9
2022-08-03T02:39:02.744Z,94.89
2022-08-03T02:39:22.843Z,94.83
2022-08-03T02:39:42.937Z,94.95
2022-08-03T02:40:02.994Z,94.9
2022-08-03T02:40:23.070Z,94.81
2022-08-03T02:40:43.148Z,94.74
2022-08-03T02:41:03.208Z,94.66
2022-08-03T02:41:23.359Z,94.56
2022-08-03T02:41:43.395Z,94.5
2022-08-03T02:42:03.549Z,94.59
2022-08-03T02:42:23.549Z,94.67
2022-08-03T02:42:43.615Z,94.68
2022-08-03T02:43:03.700Z,94.7
2022-08-03T02:43:23.786Z,94.77
2022-08-03T02:44:06.043Z,94.8
2022-08-03T02:44:06.558Z,94.89
2022-08-03T02:44:24.020Z,94.96
2022-08-03T02:44:44.094Z,95.07
2022-08-03T02:45:04.166Z,95.13
2022-08-03T02:45:24.273Z,95.07
2022-08-03T02:45:45.665Z,95.14
2022-08-03T02:46:04.426Z,95.03
2022-08-03T02:46:24.562Z,95.01
2022-08-03T02:46:44.551Z,94.95
2022-08-03T02:47:04.631Z,94.93
2022-08-03T02:47:24.713Z,94.94
2022-08-03T02:47:54.580Z,94.94
2022-08-03T02:48:04.839Z,95.09
2022-08-03T02:48:24.910Z,95.25
2022-08-03T02:48:44.974Z,95.44
2022-08-03T02:49:40.689Z,95.47
2022-08-03T02:49:40.729Z,95.49
2022-08-03T02:49:50.301Z,95.43
2022-08-03T02:50:05.337Z,95.41
2022-08-03T02:50:25.475Z,95.45
2022-08-03T02:50:45.407Z,95.41
2022-08-03T02:51:05.476Z,95.38
2022-08-03T02:51:25.592Z,95.39
2022-08-03T02:51:45.603Z,95.67
2022-08-03T02:52:05.665Z,95.76
2022-08-03T02:52:25.735Z,95.71
2022-08-03T02:52:45.790Z,95.66
2022-08-03T02:53:05.877Z,95.81
2022-08-03T02:53:25.954Z,95.91
2022-08-03T02:53:46.031Z,95.97
2022-08-03T02:54:06.108Z,95.99
2022-08-03T02:54:26.180Z,96
2022-08-03T02:54:46.261Z,95.95
2022-08-03T02:55:06.353Z,95.99
2022-08-03T02:55:26.437Z,96.11
2022-08-03T02:55:46.495Z,96.11
2022-08-03T02:56:06.587Z,95.99
2022-08-03T02:56:26.714Z,95.85
2022-08-03T02:56:46.715Z,95.7
2022-08-03T02:57:06.786Z,95.5
2022-08-03T02:57:26.858Z,95.4
2022-08-03T02:57:46.920Z,95.32
2022-08-03T02:58:06.968Z,95.37
2022-08-03T02:58:27.047Z,95.48
2022-08-03T02:58:47.095Z,95.57
2022-08-03T02:59:07.178Z,95.56
2022-08-03T02:59:27.249Z,95.5
2022-08-03T02:59:47.309Z,95.39
2022-08-03T03:00:07.388Z,95.32
2022-08-03T03:00:28.662Z,95.26
2022-08-03T03:00:47.606Z,95.27
2022-08-03T03:01:07.654Z,95.26
2022-08-03T03:01:27.788Z,95.24
2022-08-03T03:01:47.751Z,95.2
2022-08-03T03:02:07.799Z,95.19
2022-08-03T03:02:27.857Z,95.22
2022-08-03T03:02:47.943Z,95.24
2022-08-03T03:03:08.012Z,95.23
2022-08-03T03:03:28.940Z,95.34
2022-08-03T03:03:48.155Z,95.34
2022-08-03T03:04:08.208Z,95.37
2022-08-03T03:04:32.947Z,95.33
2022-08-03T03:05:50.884Z,95.4
2022-08-03T03:05:52.939Z,95.46
2022-08-03T03:05:53.401Z,95.47
2022-08-03T03:05:55.894Z,95.46
2022-08-03T03:06:08.668Z,95.45
2022-08-03T03:06:29.305Z,95.45
2022-08-03T03:06:48.832Z,95.48
2022-08-03T03:07:08.921Z,95.53
2022-08-03T03:07:28.985Z,95.59
2022-08-03T03:07:51.520Z,95.6
2022-08-03T03:08:17.979Z,95.6
2022-08-03T03:08:29.379Z,95.63
2022-08-03T03:08:49.267Z,95.62
2022-08-03T03:09:09.345Z,95.54
2022-08-03T03:09:40.207Z,95.4
2022-08-03T03:09:49.475Z,95.3
2022-08-03T03:10:09.575Z,95.15
2022-08-03T03:10:29.634Z,95.04
2022-08-03T03:10:53.274Z,95
2022-08-03T03:11:09.779Z,94.99
2022-08-03T03:11:29.945Z,94.9
2022-08-03T03:11:49.981Z,94.83
2022-08-03T03:12:10.166Z,94.75
2022-08-03T03:12:30.126Z,94.59
2022-08-03T03:12:50.215Z,94.55
2022-08-03T03:13:10.289Z,94.49
2022-08-03T03:13:30.350Z,94.44
2022-08-03T03:13:50.420Z,94.52
2022-08-03T03:14:10.503Z,94.55
2022-08-03T03:14:33.730Z,94.62
2022-08-03T03:14:50.649Z,94.58
2022-08-03T03:15:10.706Z,94.52
2022-08-03T03:15:30.802Z,94.46
2022-08-03T03:15:50.899Z,94.6
2022-08-03T03:16:10.963Z,94.68
2022-08-03T03:16:31.080Z,94.78
2022-08-03T03:16:51.267Z,94.83
2022-08-03T03:17:11.115Z,94.95
2022-08-03T03:17:31.188Z,95.06
2022-08-03T03:17:51.278Z,95.19
2022-08-03T03:18:11.357Z,95.33
2022-08-03T03:18:31.413Z,95.5
2022-08-03T03:18:51.510Z,95.56
2022-08-03T03:19:11.598Z,95.5
2022-08-03T03:19:31.694Z,95.35
2022-08-03T03:19:51.759Z,95.24
2022-08-03T03:20:11.851Z,95.18
2022-08-03T03:20:31.946Z,95.13
2022-08-03T03:20:52.030Z,95.13
2022-08-03T03:21:12.078Z,95.12
2022-08-03T03:21:32.226Z,95.08
2022-08-03T03:21:52.228Z,95.05
2022-08-03T03:22:12.280Z,95
2022-08-03T03:22:32.361Z,95.06
2022-08-03T03:22:52.422Z,95.15
2022-08-03T03:23:12.484Z,95.3
2022-08-03T03:23:32.542Z,95.35
2022-08-03T03:23:52.614Z,95.23
2022-08-03T03:24:12.694Z,95.15
2022-08-03T03:24:32.793Z,95.21
2022-08-03T03:24:52.849Z,95.23
2022-08-03T03:25:12.911Z,95.16
2022-08-03T03:25:32.988Z,95.07
2022-08-03T03:25:53.053Z,95.01
2022-08-03T03:26:13.111Z,94.87
2022-08-03T03:26:33.240Z,94.75
2022-08-03T03:26:53.249Z,94.7
2022-08-03T03:27:16.815Z,94.76
2022-08-03T03:27:33.420Z,94.68
2022-08-03T03:27:53.464Z,94.77
2022-08-03T03:28:13.557Z,94.81
2022-08-03T03:28:33.646Z,94.87
2022-08-03T03:28:53.725Z,94.94
2022-08-03T03:29:13.812Z,94.98
2022-08-03T03:29:39.139Z,95.18
2022-08-03T03:29:53.916Z,95.37
2022-08-03T03:30:13.976Z,95.48
2022-08-03T03:30:34.063Z,95.58
2022-08-03T03:30:54.121Z,95.68
2022-08-03T03:31:14.208Z,95.76
2022-08-03T03:31:34.376Z,95.89
2022-08-03T03:31:54.371Z,95.97
2022-08-03T03:32:14.703Z,95.93
2022-08-03T03:32:34.520Z,95.93
2022-08-03T03:32:54.606Z,95.91
2022-08-03T03:33:14.695Z,96.1
2022-08-03T03:33:34.802Z,96.36
2022-08-03T03:33:54.894Z,96.54
2022-08-03T03:34:14.944Z,96.65
2022-08-03T03:34:35.007Z,96.77
2022-08-03T03:34:55.068Z,96.81
2022-08-03T03:35:15.170Z,96.98
2022-08-03T03:35:38.766Z,97.02
2022-08-03T03:35:55.309Z,97.03
2022-08-03T03:36:15.344Z,97.01
2022-08-03T03:36:35.489Z,97.02
2022-08-03T03:36:55.491Z,97.07
2022-08-03T03:37:15.554Z,97.07
2022-08-03T03:37:35.631Z,97.09
2022-08-03T03:37:55.681Z,97.09
2022-08-03T03:38:15.759Z,97.1
2022-08-03T03:38:35.812Z,97.1
2022-08-03T03:38:55.905Z,97.12
2022-08-03T03:39:16.220Z,97.15
2022-08-03T03:39:36.076Z,97.16
2022-08-03T03:39:56.112Z,97.08
2022-08-03T03:40:16.197Z,97.11
2022-08-03T03:40:36.280Z,97.12
2022-08-03T03:40:56.357Z,97.14
2022-08-03T03:41:16.426Z,97.13
2022-08-03T03:41:36.584Z,97.13
2022-08-03T03:41:56.583Z,97.12
2022-08-03T03:42:17.115Z,97.12
2022-08-03T03:42:36.760Z,97.13
2022-08-03T03:42:56.854Z,97.14
2022-08-03T03:43:16.941Z,97.08
2022-08-03T03:43:37.012Z,97.01
2022-08-03T03:43:57.091Z,96.98
2022-08-03T03:44:17.191Z,96.89
2022-08-03T03:44:37.266Z,96.83
2022-08-03T03:44:57.302Z,96.84
2022-08-03T03:45:17.366Z,96.84
2022-08-03T03:45:37.419Z,96.82
2022-08-03T03:45:57.483Z,96.73
2022-08-03T03:46:17.546Z,96.78
2022-08-03T03:46:37.692Z,96.65
2022-08-03T03:46:57.723Z,96.59
2022-08-03T03:47:17.786Z,96.61
2022-08-03T03:47:37.840Z,96.54
2022-08-03T03:47:57.916Z,96.51
2022-08-03T03:48:17.970Z,96.42
2022-08-03T03:48:38.076Z,96.33
2022-08-03T03:48:58.165Z,96.23
2022-08-03T03:49:18.287Z,96.13
2022-08-03T03:49:38.339Z,96.01
2022-08-03T03:49:58.365Z,95.89
2022-08-03T03:50:18.418Z,95.84
2022-08-03T03:50:38.495Z,95.91
2022-08-03T03:50:58.559Z,95.97
2022-08-03T03:51:18.656Z,96.02
2022-08-03T03:51:38.812Z,96.12
2022-08-03T03:51:58.798Z,96.14
2022-08-03T03:52:18.869Z,96.21
2022-08-03T03:52:38.942Z,96.19
2022-08-03T03:52:59.005Z,96.21
2022-08-03T03:53:19.080Z,96.15
2022-08-03T03:53:39.163Z,96.18
2022-08-03T03:53:59.234Z,96.22
2022-08-03T03:54:19.333Z,96.19
2022-08-03T03:54:39.425Z,96.19
2022-08-03T03:55:01.281Z,96.17
2022-08-03T03:55:19.608Z,96.11
2022-08-03T03:55:59.793Z,96.08
2022-08-03T03:56:02.846Z,96.02
2022-08-03T03:56:19.842Z,95.92
2022-08-03T03:56:39.973Z,95.9
2022-08-03T03:56:59.980Z,95.95
2022-08-03T03:57:20.035Z,96
2022-08-03T03:57:40.105Z,95.97
2022-08-03T03:58:00.177Z,95.94
2022-08-03T03:58:20.236Z,95.95
2022-08-03T03:58:40.331Z,95.99
2022-08-03T03:59:00.369Z,96.01
2022-08-03T03:59:20.438Z,96.04
2022-08-03T03:59:40.495Z,96.02
2022-08-03T04:00:00.601Z,95.98
2022-08-03T04:00:20.673Z,95.95
2022-08-03T04:00:40.838Z,95.99
2022-08-03T04:01:00.947Z,96.04
2022-08-03T04:01:20.966Z,96.11
2022-08-03T04:01:41.044Z,96.17
2022-08-03T04:02:01.047Z,96.26
2022-08-03T04:02:21.141Z,96.29
2022-08-03T04:02:41.236Z,96.26
2022-08-03T04:03:01.336Z,96.3
2022-08-03T04:03:21.411Z,96.32
2022-08-03T04:03:41.476Z,96.35
2022-08-03T04:04:01.556Z,96.35
2022-08-03T04:04:21.615Z,96.39
2022-08-03T04:04:41.677Z,96.4
2022-08-03T04:05:01.782Z,96.3
2022-08-03T04:05:21.843Z,96.28
2022-08-03T04:05:45.882Z,96.21
2022-08-03T04:06:02.029Z,96.2
2022-08-03T04:06:22.116Z,96.22
2022-08-03T04:06:42.231Z,96.19
2022-08-03T04:07:02.250Z,96.12
2022-08-03T04:07:22.323Z,96.03
2022-08-03T04:07:42.370Z,95.92
2022-08-03T04:08:02.438Z,95.77
2022-08-03T04:08:22.502Z,95.69
2022-08-03T04:08:42.583Z,95.7
2022-08-03T04:09:02.666Z,95.69
2022-08-03T04:09:22.768Z,95.69
2022-08-03T04:09:42.852Z,95.62
2022-08-03T04:10:14.362Z,95.52
2022-08-03T04:10:23.006Z,95.42
2022-08-03T04:10:43.049Z,95.42
2022-08-03T04:11:03.110Z,95.39
2022-08-03T04:11:29.275Z,95.35
2022-08-03T04:11:43.359Z,95.4
2022-08-03T04:12:03.376Z,95.41
2022-08-03T04:12:23.472Z,95.55
2022-08-03T04:12:50.042Z,95.68
2022-08-03T04:13:03.601Z,95.77
2022-08-03T04:13:23.690Z,95.92
2022-08-03T04:13:43.745Z,95.93
2022-08-03T04:14:03.847Z,95.87
2022-08-03T04:14:23.919Z,95.81
2022-08-03T04:14:44.008Z,95.85
2022-08-03T04:15:04.080Z,95.89
2022-08-03T04:15:24.146Z,95.94
2022-08-03T04:15:44.205Z,95.95
2022-08-03T04:16:04.333Z,95.99
2022-08-03T04:16:24.392Z,96.05
2022-08-03T04:16:44.541Z,96.24
2022-08-03T04:17:04.531Z,96.3
2022-08-03T04:17:24.619Z,96.4
2022-08-03T04:17:44.703Z,96.35
2022-08-03T04:18:04.806Z,96.4
2022-08-03T04:18:24.853Z,96.37
2022-08-03T04:18:44.937Z,96.39
2022-08-03T04:19:05.030Z,96.5
2022-08-03T04:19:25.106Z,96.56
2022-08-03T04:19:45.205Z,96.6